createdAt,value
2019-05-30T00:00:14.412Z,1.59
2019-05-30T00:01:58.657Z,1.81
2019-05-30T00:02:58.576Z,0.92
2019-05-30T00:03:58.886Z,0.61
2019-05-30T00:04:58.243Z,2.58
2019-05-30T00:07:58.182Z,1.40
2019-05-30T00:08:58.427Z,1.07
2019-05-30T00:09:58.404Z,1.30
2019-05-30T00:10:58.492Z,0.76
2019-05-30T00:12:58.644Z,0.72
2019-05-30T00:13:58.644Z,0.65
2019-05-30T00:14:58.617Z,0.80
2019-05-30T00:15:58.730Z,1.70
2019-05-30T00:18:58.749Z,1.36
2019-05-30T00:19:58.811Z,1.82
2019-05-30T00:20:58.744Z,2.34
2019-05-30T00:21:58.684Z,1.15
2019-05-30T00:23:57.944Z,1.15
2019-05-30T00:24:57.983Z,0.97
2019-05-30T00:25:59.055Z,1.27
2019-05-30T00:26:58.289Z,0.93
2019-05-30T00:29:57.966Z,2.25
2019-05-30T00:30:58.318Z,3.74
2019-05-30T00:31:57.982Z,1.76
2019-05-30T00:32:58.923Z,2.92
2019-05-30T00:35:57.965Z,2.39
2019-05-30T00:36:57.975Z,2.46
2019-05-30T00:37:58.005Z,3.67
2019-05-30T00:38:57.962Z,1.95
2019-05-30T00:41:57.966Z,2.97
2019-05-30T00:42:57.978Z,2.57
2019-05-30T00:43:58.026Z,2.19
2019-05-30T00:44:57.970Z,1.41
2019-05-30T00:47:58.121Z,1.60
2019-05-30T00:48:58.259Z,0.63
2019-05-30T00:49:58.201Z,0.54
2019-05-30T00:50:58.335Z,0.87
2019-05-30T00:53:58.561Z,2.49
2019-05-30T00:54:58.469Z,2.44
2019-05-30T00:55:58.563Z,1.05
2019-05-30T00:56:58.606Z,1.51
2019-05-30T00:59:58.764Z,0.51
2019-05-30T01:00:59.021Z,1.50
2019-05-30T01:01:58.590Z,1.24
2019-05-30T01:02:59.918Z,0.90
2019-05-30T01:05:58.714Z,1.47
2019-05-30T01:06:58.939Z,2.88
2019-05-30T01:07:58.777Z,3.38
2019-05-30T01:08:59.061Z,1.11
2019-05-30T01:11:59.149Z,1.70
2019-05-30T01:12:59.783Z,1.35
2019-05-30T01:13:58.977Z,0.73
2019-05-30T01:14:58.925Z,1.98
2019-05-30T01:16:58.992Z,1.39
2019-05-30T01:17:59.048Z,1.41
2019-05-30T01:18:59.049Z,1.97
2019-05-30T01:19:59.086Z,2.55
2019-05-30T01:22:59.154Z,2.72
2019-05-30T01:23:59.142Z,1.71
2019-05-30T01:24:58.896Z,1.58
2019-05-30T01:25:59.212Z,2.26
2019-05-30T01:27:59.401Z,2.69
2019-05-30T01:28:59.245Z,1.36
2019-05-30T01:29:59.079Z,1.49
2019-05-30T01:31:02.997Z,1.27
2019-05-30T01:33:58.022Z,4.04
2019-05-30T01:34:58.049Z,1.65
2019-05-30T01:35:57.997Z,1.30
2019-05-30T01:36:57.999Z,1.40
2019-05-30T01:38:58.000Z,0.59
2019-05-30T01:39:58.017Z,0.93
2019-05-30T01:40:58.042Z,1.96
2019-05-30T01:41:58.003Z,1.12
2019-05-30T01:44:58.107Z,1.28
2019-05-30T01:45:58.069Z,1.27
2019-05-30T01:46:58.202Z,1.27
2019-05-30T01:47:58.217Z,3.51
2019-05-30T01:49:58.295Z,1.55
2019-05-30T01:50:58.296Z,0.91
2019-05-30T01:51:58.390Z,3.18
2019-05-30T01:52:58.478Z,1.19
2019-05-30T01:55:58.544Z,0.71
2019-05-30T01:56:58.450Z,0.86
2019-05-30T01:57:58.732Z,2.26
2019-05-30T01:58:58.652Z,1.60
2019-05-30T02:00:58.760Z,0.72
2019-05-30T02:01:58.867Z,3.67
2019-05-30T02:02:58.871Z,2.33
2019-05-30T02:03:59.117Z,2.84
2019-05-30T02:06:59.209Z,1.50
2019-05-30T02:07:58.974Z,2.45
2019-05-30T02:08:59.143Z,0.22
2019-05-30T02:09:59.119Z,1.69
2019-05-30T02:11:59.230Z,1.63
2019-05-30T02:12:59.219Z,0.68
2019-05-30T02:13:59.451Z,0.96
2019-05-30T02:14:59.304Z,0.69
2019-05-30T02:17:58.025Z,0.77
2019-05-30T02:18:58.060Z,0.24
2019-05-30T02:19:58.067Z,1.24
2019-05-30T02:20:58.029Z,3.70
2019-05-30T02:22:58.082Z,1.18
2019-05-30T02:23:58.034Z,1.28
2019-05-30T02:24:58.039Z,0.40
2019-05-30T02:25:58.080Z,2.04
2019-05-30T02:28:58.105Z,2.19
2019-05-30T02:29:58.040Z,1.90
2019-05-30T02:30:58.096Z,3.69
2019-05-30T02:31:58.085Z,2.57
2019-05-30T02:34:58.089Z,3.92
2019-05-30T02:35:58.042Z,1.57
2019-05-30T02:36:58.103Z,1.46
2019-05-30T02:37:58.101Z,0.72
2019-05-30T02:40:02.488Z,3.20
2019-05-30T02:40:58.124Z,2.19
2019-05-30T02:41:58.066Z,1.18
2019-05-30T02:42:58.081Z,1.90
2019-05-30T02:44:58.048Z,1.04
2019-05-30T02:45:58.106Z,0.98
2019-05-30T02:46:58.099Z,0.58
2019-05-30T02:47:58.051Z,0.92
2019-05-30T02:50:58.051Z,0.24
2019-05-30T02:51:58.098Z,0.22
2019-05-30T02:52:58.139Z,0.84
2019-05-30T02:53:58.055Z,2.14
2019-05-30T02:56:58.061Z,2.32
2019-05-30T02:57:58.098Z,2.76
2019-05-30T02:58:58.114Z,1.70
2019-05-30T02:59:58.060Z,2.36
2019-05-30T03:02:58.073Z,0.01
2019-05-30T03:03:58.098Z,0.40
2019-05-30T03:04:58.125Z,0.83
2019-05-30T03:05:58.075Z,0.69
2019-05-30T03:08:58.083Z,1.04
2019-05-30T03:09:58.126Z,0.83
2019-05-30T03:10:58.109Z,0.42
2019-05-30T03:11:58.082Z,0.00
2019-05-30T03:14:58.072Z,1.10
2019-05-30T03:15:58.109Z,0.75
2019-05-30T03:16:58.137Z,0.21
2019-05-30T03:17:58.075Z,1.22
2019-05-30T03:19:58.115Z,0.09
2019-05-30T03:20:58.092Z,0.51
2019-05-30T03:21:58.097Z,0.83
2019-05-30T03:22:58.135Z,0.55
2019-05-30T03:25:58.153Z,0.97
2019-05-30T03:26:58.092Z,0.92
2019-05-30T03:27:58.123Z,1.75
2019-05-30T03:28:58.126Z,1.18
2019-05-30T03:31:58.133Z,1.59
2019-05-30T03:33:07.388Z,3.19
2019-05-30T03:33:58.102Z,1.65
2019-05-30T03:34:58.126Z,0.62
2019-05-30T03:37:58.124Z,1.50
2019-05-30T03:38:58.120Z,0.43
2019-05-30T03:39:58.102Z,1.45
2019-05-30T03:40:58.125Z,2.14
2019-05-30T03:43:58.151Z,1.35
2019-05-30T03:44:58.095Z,2.67
2019-05-30T03:45:58.120Z,2.65
2019-05-30T03:46:58.138Z,2.27
2019-05-30T03:48:58.135Z,2.02
2019-05-30T03:49:58.137Z,2.13
2019-05-30T03:50:58.094Z,1.25
2019-05-30T03:51:58.131Z,1.97
2019-05-30T03:53:58.117Z,1.93
2019-05-30T03:54:58.151Z,0.84
2019-05-30T03:55:58.148Z,1.55
2019-05-30T03:56:58.099Z,1.40
2019-05-30T03:59:58.130Z,1.86
2019-05-30T04:00:58.121Z,3.03
2019-05-30T04:01:58.181Z,2.41
2019-05-30T04:02:59.259Z,1.74
2019-05-30T04:04:58.151Z,0.68
2019-05-30T04:05:58.110Z,1.16
2019-05-30T04:06:58.153Z,1.50
2019-05-30T04:07:58.135Z,0.66
2019-05-30T04:10:58.179Z,3.28
2019-05-30T04:11:58.129Z,1.61
2019-05-30T04:12:58.136Z,2.51
2019-05-30T04:13:58.185Z,2.41
2019-05-30T04:15:58.121Z,2.17
2019-05-30T04:16:58.180Z,0.71
2019-05-30T04:17:58.117Z,2.78
2019-05-30T04:18:58.307Z,2.07
2019-05-30T04:20:58.140Z,1.27
2019-05-30T04:21:58.137Z,1.46
2019-05-30T04:22:58.316Z,0.88
2019-05-30T04:23:58.140Z,1.14
2019-05-30T04:26:00.647Z,3.18
2019-05-30T04:26:58.137Z,3.97
2019-05-30T04:27:58.183Z,2.14
2019-05-30T04:28:58.175Z,2.61
2019-05-30T04:31:58.190Z,3.40
2019-05-30T04:33:16.332Z,3.27
2019-05-30T04:33:58.141Z,1.05
2019-05-30T04:34:58.169Z,1.47
2019-05-30T04:37:58.205Z,0.93
2019-05-30T04:38:58.148Z,2.17
2019-05-30T04:39:58.129Z,1.00
2019-05-30T04:40:58.168Z,1.22
2019-05-30T04:43:58.234Z,0.39
2019-05-30T04:44:58.145Z,1.41
2019-05-30T04:45:58.174Z,0.65
2019-05-30T04:46:58.176Z,1.92
2019-05-30T04:48:58.144Z,0.02
2019-05-30T04:49:58.182Z,0.90
2019-05-30T04:50:58.145Z,1.53
2019-05-30T04:51:58.142Z,3.15
2019-05-30T04:54:58.197Z,1.74
2019-05-30T04:55:58.217Z,1.48
2019-05-30T04:56:58.144Z,0.36
2019-05-30T04:57:58.156Z,1.42
2019-05-30T05:00:58.213Z,3.28
2019-05-30T05:01:58.204Z,2.93
2019-05-30T05:02:58.155Z,3.31
2019-05-30T05:03:58.169Z,2.86
2019-05-30T05:07:58.190Z,3.08
2019-05-30T05:08:58.152Z,3.55
2019-05-30T05:09:58.191Z,2.45
2019-05-30T05:10:58.210Z,1.22
2019-05-30T05:13:58.206Z,2.58
2019-05-30T05:14:58.184Z,2.69
2019-05-30T05:15:58.162Z,2.45
2019-05-30T05:16:58.221Z,1.79
2019-05-30T05:19:58.210Z,1.12
2019-05-30T05:20:58.177Z,2.54
2019-05-30T05:21:58.197Z,1.88
2019-05-30T05:22:58.205Z,2.02
2019-05-30T05:26:01.022Z,2.40
2019-05-30T05:26:58.180Z,1.63
2019-05-30T05:27:58.231Z,0.62
2019-05-30T05:28:58.208Z,0.49
2019-05-30T05:30:58.204Z,1.15
2019-05-30T05:31:58.226Z,1.67
2019-05-30T05:32:58.174Z,2.14
2019-05-30T05:33:58.196Z,1.35
2019-05-30T05:36:58.238Z,0.57
2019-05-30T05:37:58.229Z,0.67
2019-05-30T05:38:58.181Z,0.79
2019-05-30T05:39:58.177Z,2.57
2019-05-30T05:42:58.236Z,1.00
2019-05-30T05:43:58.236Z,1.67
2019-05-30T05:44:58.180Z,2.23
2019-05-30T05:45:58.206Z,2.43
2019-05-30T05:47:58.178Z,2.08
2019-05-30T05:48:58.206Z,2.66
2019-05-30T05:49:58.220Z,1.73
2019-05-30T05:50:58.184Z,0.91
2019-05-30T05:52:58.223Z,1.68
2019-05-30T05:53:58.183Z,1.84
2019-05-30T05:54:58.195Z,1.47
2019-05-30T05:55:58.250Z,1.82
2019-05-30T05:58:58.255Z,0.76
2019-05-30T05:59:58.217Z,1.09
2019-05-30T06:00:58.243Z,0.83
2019-05-30T06:01:58.237Z,1.06
2019-05-30T06:04:12.130Z,0.95
2019-05-30T06:04:58.251Z,1.90
2019-05-30T06:05:58.204Z,1.69
2019-05-30T06:06:58.208Z,3.14
2019-05-30T06:08:58.215Z,2.16
2019-05-30T06:09:58.201Z,0.45
2019-05-30T06:10:58.268Z,0.47
2019-05-30T06:11:58.207Z,1.25
2019-05-30T06:14:58.211Z,0.95
2019-05-30T06:15:58.208Z,0.93
2019-05-30T06:16:58.262Z,2.22
2019-05-30T06:17:58.236Z,3.26
2019-05-30T06:20:58.209Z,2.17
2019-05-30T06:21:58.232Z,1.81
2019-05-30T06:22:58.259Z,0.72
2019-05-30T06:23:58.215Z,1.42
2019-05-30T06:26:58.271Z,1.88
2019-05-30T06:27:58.216Z,1.58
2019-05-30T06:28:58.238Z,1.91
2019-05-30T06:29:58.279Z,1.50
2019-05-30T06:32:58.216Z,0.70
2019-05-30T06:33:58.259Z,0.39
2019-05-30T06:34:58.270Z,1.16
2019-05-30T06:35:58.267Z,1.83
2019-05-30T06:38:58.229Z,2.50
2019-05-30T06:39:58.237Z,1.02
2019-05-30T06:40:58.301Z,1.93
2019-05-30T06:41:58.271Z,1.56
2019-05-30T06:43:58.270Z,0.65
2019-05-30T06:44:58.234Z,1.81
2019-05-30T06:45:58.228Z,0.83
2019-05-30T06:46:58.288Z,0.36
2019-05-30T06:48:58.232Z,1.14
2019-05-30T06:49:58.312Z,2.16
2019-05-30T06:50:58.274Z,1.36
2019-05-30T06:51:58.297Z,2.58
2019-05-30T06:54:58.279Z,0.62
2019-05-30T06:55:58.297Z,1.97
2019-05-30T06:56:58.235Z,0.56
2019-05-30T06:57:58.268Z,0.89
2019-05-30T07:00:58.249Z,2.38
2019-05-30T07:01:58.313Z,3.52
2019-05-30T07:02:58.338Z,0.69
2019-05-30T07:03:58.508Z,1.19
2019-05-30T07:06:58.451Z,3.56
2019-05-30T07:07:58.301Z,2.81
2019-05-30T07:08:58.249Z,2.49
2019-05-30T07:09:58.262Z,3.18
2019-05-30T07:12:58.276Z,1.17
2019-05-30T07:13:58.311Z,1.81
2019-05-30T07:14:58.311Z,1.29
2019-05-30T07:15:58.271Z,3.10
2019-05-30T07:18:58.262Z,2.12
2019-05-30T07:19:58.313Z,2.57
2019-05-30T07:20:58.270Z,1.96
2019-05-30T07:21:58.262Z,1.40
2019-05-30T07:24:58.264Z,2.97
2019-05-30T07:25:58.334Z,3.98
2019-05-30T07:26:58.267Z,2.46
2019-05-30T07:27:58.288Z,2.07
2019-05-30T07:30:58.273Z,0.39
2019-05-30T07:31:58.328Z,1.40
2019-05-30T07:32:58.343Z,0.41
2019-05-30T07:33:58.268Z,0.85
2019-05-30T07:36:58.273Z,0.67
2019-05-30T07:37:58.379Z,1.10
2019-05-30T07:38:58.347Z,1.65
2019-05-30T07:39:58.279Z,0.83
2019-05-30T07:42:58.284Z,2.74
2019-05-30T07:43:58.334Z,1.38
2019-05-30T07:44:58.288Z,0.34
2019-05-30T07:45:58.713Z,1.70
2019-05-30T07:48:58.284Z,1.85
2019-05-30T07:49:58.354Z,1.03
2019-05-30T07:50:58.282Z,1.32
2019-05-30T07:51:58.294Z,2.12
2019-05-30T07:54:58.321Z,2.89
2019-05-30T07:55:58.345Z,1.39
2019-05-30T07:56:58.333Z,1.02
2019-05-30T07:57:58.288Z,2.49
2019-05-30T08:00:58.331Z,1.15
2019-05-30T08:01:58.350Z,1.98
2019-05-30T08:02:58.285Z,1.19
2019-05-30T08:03:58.322Z,0.90
2019-05-30T08:06:58.292Z,3.81
2019-05-30T08:07:58.344Z,2.93
2019-05-30T08:08:58.349Z,2.05
2019-05-30T08:09:58.334Z,1.19
2019-05-30T08:12:58.304Z,2.73
2019-05-30T08:13:58.339Z,2.78
2019-05-30T08:14:58.306Z,2.98
2019-05-30T08:15:58.329Z,2.41
2019-05-30T08:18:58.339Z,0.06
2019-05-30T08:19:58.367Z,0.75
2019-05-30T08:20:58.320Z,1.60
2019-05-30T08:21:58.307Z,1.53
2019-05-30T08:24:58.311Z,0.71
2019-05-30T08:25:58.367Z,1.25
2019-05-30T08:26:58.309Z,0.86
2019-05-30T08:27:58.306Z,2.73
2019-05-30T08:30:58.309Z,1.21
2019-05-30T08:31:58.398Z,1.48
2019-05-30T08:32:58.317Z,1.75
2019-05-30T08:33:58.341Z,1.63
2019-05-30T08:36:58.377Z,1.35
2019-05-30T08:37:58.377Z,2.37
2019-05-30T08:38:58.337Z,2.33
2019-05-30T08:39:58.342Z,1.78
2019-05-30T08:42:58.373Z,2.26
2019-05-30T08:43:58.364Z,2.59
2019-05-30T08:44:58.367Z,3.78
2019-05-30T08:45:58.351Z,3.11
2019-05-30T08:49:01.624Z,5.89
2019-05-30T08:49:58.367Z,4.00
2019-05-30T08:50:58.397Z,3.66
2019-05-30T08:51:58.397Z,1.21
2019-05-30T08:54:58.414Z,1.15
2019-05-30T08:55:58.364Z,2.61
2019-05-30T08:56:58.386Z,0.43
2019-05-30T08:57:58.361Z,1.98
2019-05-30T09:00:58.406Z,4.86
2019-05-30T09:01:58.373Z,4.58
2019-05-30T09:02:58.342Z,3.52
2019-05-30T09:03:58.369Z,2.14
2019-05-30T09:06:58.378Z,0.90
2019-05-30T09:07:58.415Z,0.93
2019-05-30T09:08:58.347Z,1.01
2019-05-30T09:09:58.421Z,0.75
2019-05-30T09:12:58.378Z,2.30
2019-05-30T09:13:58.402Z,1.55
2019-05-30T09:14:58.408Z,2.55
2019-05-30T09:15:58.420Z,1.41
2019-05-30T09:18:58.357Z,1.52
2019-05-30T09:19:58.401Z,1.71
2019-05-30T09:20:58.371Z,1.61
2019-05-30T09:24:58.422Z,2.42
2019-05-30T09:25:58.379Z,2.82
2019-05-30T09:26:58.381Z,4.97
2019-05-30T09:27:58.525Z,2.85
2019-05-30T09:30:58.408Z,1.49
2019-05-30T09:31:58.355Z,0.46
2019-05-30T09:32:58.387Z,3.37
2019-05-30T09:33:58.457Z,1.83
2019-05-30T09:36:58.441Z,1.14
2019-05-30T09:37:58.354Z,2.27
2019-05-30T09:38:58.436Z,2.07
2019-05-30T09:39:58.410Z,2.45
2019-05-30T09:42:58.425Z,2.64
2019-05-30T09:43:58.370Z,0.49
2019-05-30T09:44:58.383Z,1.59
2019-05-30T09:45:58.430Z,3.31
2019-05-30T09:48:58.412Z,3.16
2019-05-30T09:49:58.385Z,2.11
2019-05-30T09:50:58.416Z,1.33
2019-05-30T09:52:18.518Z,3.03
2019-05-30T09:54:58.434Z,3.33
2019-05-30T09:55:58.386Z,2.86
2019-05-30T09:56:58.408Z,1.90
2019-05-30T09:57:58.455Z,1.70
2019-05-30T10:00:58.436Z,2.01
2019-05-30T10:02:07.913Z,3.63
2019-05-30T10:02:58.420Z,2.54
2019-05-30T10:03:58.466Z,2.95
2019-05-30T10:06:58.443Z,2.07
2019-05-30T10:07:58.447Z,2.69
2019-05-30T10:08:58.420Z,2.22
2019-05-30T10:09:58.437Z,2.43
2019-05-30T10:12:58.455Z,4.31
2019-05-30T10:13:58.446Z,4.96
2019-05-30T10:14:58.454Z,2.79
2019-05-30T10:15:58.459Z,3.03
2019-05-30T10:18:58.449Z,2.21
2019-05-30T10:19:58.395Z,1.91
2019-05-30T10:20:58.435Z,3.86
2019-05-30T10:21:58.444Z,3.12
2019-05-30T10:24:58.449Z,5.78
2019-05-30T10:25:58.419Z,2.42
2019-05-30T10:26:58.466Z,2.53
2019-05-30T10:27:58.477Z,2.12
2019-05-30T10:30:59.442Z,1.46
2019-05-30T10:31:58.459Z,1.47
2019-05-30T10:32:58.426Z,1.01
2019-05-30T10:33:58.457Z,2.23
2019-05-30T10:36:58.483Z,1.33
2019-05-30T10:37:58.415Z,1.25
2019-05-30T10:38:58.462Z,1.51
2019-05-30T10:39:59.148Z,0.53
2019-05-30T10:42:58.482Z,2.36
2019-05-30T10:43:58.468Z,2.09
2019-05-30T10:44:58.459Z,2.71
2019-05-30T10:45:58.461Z,2.00
2019-05-30T10:48:58.485Z,3.23
2019-05-30T10:49:58.454Z,4.10
2019-05-30T10:50:58.441Z,1.72
2019-05-30T10:51:59.431Z,2.78
2019-05-30T10:54:58.491Z,2.29
2019-05-30T10:55:58.503Z,3.62
2019-05-30T10:56:58.438Z,3.54
2019-05-30T10:57:59.698Z,4.02
2019-05-30T11:00:58.494Z,2.60
2019-05-30T11:01:58.491Z,3.44
2019-05-30T11:02:58.463Z,2.13
2019-05-30T11:03:58.497Z,1.32
2019-05-30T11:07:10.385Z,2.83
2019-05-30T11:08:03.856Z,1.93
2019-05-30T11:08:58.494Z,2.65
2019-05-30T11:09:58.491Z,2.31
2019-05-30T11:13:05.649Z,3.89
2019-05-30T11:13:58.517Z,5.40
2019-05-30T11:14:58.501Z,2.31
2019-05-30T11:15:58.511Z,3.94
2019-05-30T11:18:58.519Z,2.34
2019-05-30T11:19:58.478Z,3.90
2019-05-30T11:20:58.677Z,4.31
2019-05-30T11:21:58.506Z,2.88
2019-05-30T11:24:59.382Z,3.20
2019-05-30T11:25:58.914Z,4.00
2019-05-30T11:26:58.999Z,2.10
2019-05-30T11:27:58.916Z,3.32
2019-05-30T11:30:58.908Z,3.04
2019-05-30T11:31:59.075Z,3.36
2019-05-30T11:32:59.489Z,4.02
2019-05-30T11:33:59.223Z,2.82
2019-05-30T11:36:59.347Z,2.66
2019-05-30T11:37:59.269Z,2.89
2019-05-30T11:38:59.443Z,3.12
2019-05-30T11:39:59.476Z,0.72
2019-05-30T11:42:59.958Z,2.40
2019-05-30T11:43:59.661Z,6.30
2019-05-30T11:44:59.853Z,6.15
2019-05-30T11:45:59.751Z,4.22
2019-05-30T11:48:59.966Z,4.54
2019-05-30T11:50:00.252Z,1.77
2019-05-30T11:50:58.501Z,3.07
2019-05-30T11:51:59.866Z,2.56
2019-05-30T11:54:58.544Z,3.31
2019-05-30T11:55:58.530Z,3.09
2019-05-30T11:56:58.537Z,1.75
2019-05-30T11:57:58.581Z,2.86
2019-05-30T12:00:58.561Z,5.03
2019-05-30T12:01:58.590Z,4.46
2019-05-30T12:02:58.759Z,5.36
2019-05-30T12:03:58.811Z,3.65
2019-05-30T12:06:58.913Z,1.69
2019-05-30T12:07:58.975Z,4.48
2019-05-30T12:08:58.958Z,3.70
2019-05-30T12:09:58.954Z,1.81
2019-05-30T12:12:59.428Z,4.20
2019-05-30T12:13:59.507Z,3.56
2019-05-30T12:14:59.471Z,1.59
2019-05-30T12:15:59.640Z,1.21
2019-05-30T12:18:59.725Z,1.72
2019-05-30T12:19:59.573Z,2.69
2019-05-30T12:20:59.758Z,1.72
2019-05-30T12:21:59.810Z,1.66
2019-05-30T12:24:58.559Z,2.00
2019-05-30T12:25:58.566Z,1.73
2019-05-30T12:26:58.518Z,2.58
2019-05-30T12:27:58.585Z,3.51
2019-05-30T12:31:03.214Z,2.36
2019-05-30T12:32:00.205Z,2.24
2019-05-30T12:32:58.561Z,1.90
2019-05-30T12:33:58.570Z,3.21
2019-05-30T12:36:58.578Z,1.33
2019-05-30T12:38:02.612Z,5.47
2019-05-30T12:38:58.563Z,2.87
2019-05-30T12:39:58.731Z,3.63
2019-05-30T12:42:59.898Z,1.82
2019-05-30T12:43:59.158Z,1.52
2019-05-30T12:44:59.059Z,1.64
2019-05-30T12:45:59.132Z,2.18
2019-05-30T12:48:59.427Z,1.34
2019-05-30T12:49:59.332Z,5.36
2019-05-30T12:50:59.367Z,1.76
2019-05-30T12:51:58.593Z,0.94
2019-05-30T12:54:58.579Z,1.32
2019-05-30T12:55:58.567Z,2.04
2019-05-30T12:56:58.660Z,0.70
2019-05-30T12:57:58.670Z,0.85
2019-05-30T13:00:58.776Z,1.52
2019-05-30T13:01:58.980Z,0.26
2019-05-30T13:02:58.837Z,3.49
2019-05-30T13:03:58.900Z,1.04
2019-05-30T13:06:59.344Z,2.08
2019-05-30T13:08:14.367Z,2.03
2019-05-30T13:08:59.062Z,1.28
2019-05-30T13:09:59.155Z,2.74
2019-05-30T13:12:59.613Z,0.47
2019-05-30T13:13:58.585Z,1.91
2019-05-30T13:14:59.538Z,1.10
2019-05-30T13:15:58.780Z,0.67
2019-05-30T13:18:59.775Z,0.87
2019-05-30T13:19:59.078Z,0.23
2019-05-30T13:20:58.566Z,0.76
2019-05-30T13:21:59.196Z,1.31
2019-05-30T13:24:59.715Z,1.78
2019-05-30T13:25:59.584Z,0.56
2019-05-30T13:26:59.676Z,1.55
2019-05-30T13:28:01.981Z,0.56
2019-05-30T13:30:58.635Z,2.46
2019-05-30T13:31:58.626Z,4.11
2019-05-30T13:32:58.579Z,3.35
2019-05-30T13:33:58.746Z,3.23
2019-05-30T13:36:58.884Z,1.45
2019-05-30T13:37:59.071Z,2.49
2019-05-30T13:38:59.054Z,1.26
2019-05-30T13:39:59.268Z,0.87
2019-05-30T13:42:59.729Z,3.02
2019-05-30T13:44:02.624Z,3.01
2019-05-30T13:44:59.635Z,2.90
2019-05-30T13:45:58.621Z,2.98
2019-05-30T13:48:58.639Z,2.25
2019-05-30T13:49:58.641Z,3.64
2019-05-30T13:50:58.647Z,2.05
2019-05-30T13:51:58.974Z,1.72
2019-05-30T13:54:59.101Z,1.47
2019-05-30T13:55:59.288Z,1.69
2019-05-30T13:56:59.394Z,0.50
2019-05-30T13:57:59.510Z,1.78
2019-05-30T14:00:59.798Z,1.24
2019-05-30T14:01:59.830Z,0.74
2019-05-30T14:02:59.863Z,1.48
2019-05-30T14:03:59.930Z,1.53
2019-05-30T14:06:59.960Z,1.31
2019-05-30T14:07:59.897Z,1.72
2019-05-30T14:08:58.629Z,1.16
2019-05-30T14:09:58.645Z,0.85
2019-05-30T14:12:58.975Z,0.27
2019-05-30T14:13:58.649Z,0.95
2019-05-30T14:14:58.602Z,0.87
2019-05-30T14:15:58.679Z,1.34
2019-05-30T14:18:58.668Z,1.54
2019-05-30T14:19:58.623Z,0.96
2019-05-30T14:20:58.652Z,1.17
2019-05-30T14:21:58.682Z,1.43
2019-05-30T14:24:58.670Z,1.62
2019-05-30T14:25:58.618Z,1.75
2019-05-30T14:26:58.626Z,1.25
2019-05-30T14:27:58.682Z,1.35
2019-05-30T14:30:58.670Z,0.36
2019-05-30T14:31:58.676Z,0.18
2019-05-30T14:32:58.621Z,0.75
2019-05-30T14:33:58.676Z,1.78
2019-05-30T14:36:58.986Z,0.24
2019-05-30T14:37:58.634Z,0.49
2019-05-30T14:38:59.167Z,0.87
2019-05-30T14:39:58.690Z,0.83
2019-05-30T14:42:58.681Z,1.37
2019-05-30T14:43:58.638Z,2.82
2019-05-30T14:44:58.681Z,2.92
2019-05-30T14:45:58.659Z,1.18
2019-05-30T14:48:58.682Z,1.21
2019-05-30T14:49:58.685Z,1.11
2019-05-30T14:50:58.650Z,0.69
2019-05-30T14:51:58.705Z,0.61
2019-05-30T14:54:58.689Z,0.96
2019-05-30T14:55:58.704Z,1.72
2019-05-30T14:56:58.644Z,0.56
2019-05-30T14:57:58.701Z,1.23
2019-05-30T15:00:58.682Z,1.96
2019-05-30T15:01:58.646Z,1.22
2019-05-30T15:02:58.660Z,2.36
2019-05-30T15:03:58.688Z,1.41
2019-05-30T15:06:58.686Z,0.53
2019-05-30T15:07:58.730Z,1.37
2019-05-30T15:09:14.263Z,1.59
2019-05-30T15:10:44.469Z,1.47
2019-05-30T15:12:58.710Z,1.41
2019-05-30T15:13:58.644Z,1.13
2019-05-30T15:14:58.669Z,0.81
2019-05-30T15:15:58.722Z,0.84
2019-05-30T15:18:58.689Z,1.21
2019-05-30T15:19:58.720Z,1.10
2019-05-30T15:20:58.658Z,1.00
2019-05-30T15:21:58.712Z,0.26
2019-05-30T15:24:58.728Z,1.92
2019-05-30T15:25:58.710Z,1.08
2019-05-30T15:26:58.663Z,0.82
2019-05-30T15:27:58.701Z,0.50
2019-05-30T15:30:58.726Z,0.74
2019-05-30T15:31:58.671Z,1.80
2019-05-30T15:32:58.712Z,1.99
2019-05-30T15:33:58.705Z,1.15
2019-05-30T15:36:58.731Z,1.25
2019-05-30T15:37:58.732Z,0.97
2019-05-30T15:38:58.687Z,0.85
2019-05-30T15:39:58.732Z,0.89
2019-05-30T15:42:58.715Z,0.69
2019-05-30T15:43:58.685Z,1.43
2019-05-30T15:44:58.713Z,0.79
2019-05-30T15:45:58.756Z,0.62
2019-05-30T15:48:58.736Z,0.34
2019-05-30T15:49:58.761Z,0.75
2019-05-30T15:50:58.708Z,0.55
2019-05-30T15:51:58.748Z,1.26
2019-05-30T15:54:58.761Z,1.20
2019-05-30T15:55:58.753Z,1.73
2019-05-30T15:56:58.736Z,1.40
2019-05-30T15:57:58.741Z,1.97
2019-05-30T16:00:58.760Z,1.84
2019-05-30T16:01:58.715Z,1.17
2019-05-30T16:02:58.775Z,1.30
2019-05-30T16:03:58.751Z,1.93
2019-05-30T16:06:58.769Z,0.22
2019-05-30T16:07:58.714Z,0.38
2019-05-30T16:08:58.695Z,0.95
2019-05-30T16:09:58.744Z,0.22
2019-05-30T16:12:58.768Z,0.34
2019-05-30T16:13:58.720Z,0.58
2019-05-30T16:14:58.707Z,0.96
2019-05-30T16:15:58.781Z,0.92
2019-05-30T16:19:12.839Z,0.13
2019-05-30T16:19:58.711Z,0.71
2019-05-30T16:21:01.596Z,0.79
2019-05-30T16:21:59.306Z,0.88
2019-05-30T16:24:58.778Z,0.46
2019-05-30T16:25:58.723Z,0.35
2019-05-30T16:26:58.736Z,0.78
2019-05-30T16:27:58.797Z,0.46
2019-05-30T16:30:58.788Z,0.05
2019-05-30T16:31:58.747Z,0.00
2019-05-30T16:32:58.731Z,0.48
2019-05-30T16:33:58.762Z,0.06
2019-05-30T16:36:58.779Z,1.29
2019-05-30T16:37:58.742Z,0.39
2019-05-30T16:38:58.742Z,0.13
2019-05-30T16:40:06.018Z,0.72
2019-05-30T16:42:58.770Z,1.79
2019-05-30T16:43:58.745Z,2.05
2019-05-30T16:44:58.741Z,0.85
2019-05-30T16:45:58.805Z,1.25
2019-05-30T16:48:58.795Z,0.77
2019-05-30T16:49:58.756Z,0.98
2019-05-30T16:50:58.728Z,1.09
2019-05-30T16:51:58.796Z,0.00
2019-05-30T16:54:58.773Z,0.36
2019-05-30T16:55:58.804Z,0.44
2019-05-30T16:56:58.749Z,0.63
2019-05-30T16:57:58.774Z,0.28
2019-05-30T17:00:58.808Z,0.64
2019-05-30T17:01:58.790Z,0.04
2019-05-30T17:02:58.772Z,0.05
2019-05-30T17:03:58.819Z,0.21
2019-05-30T17:06:58.814Z,0.11
2019-05-30T17:07:58.735Z,0.15
2019-05-30T17:08:58.763Z,0.21
2019-05-30T17:09:58.825Z,0.80
2019-05-30T17:12:58.833Z,0.39
2019-05-30T17:13:58.784Z,0.16
2019-05-30T17:14:58.811Z,0.74
2019-05-30T17:16:00.201Z,0.70
2019-05-30T17:18:58.803Z,0.06
2019-05-30T17:19:58.810Z,0.28
2019-05-30T17:20:58.807Z,0.36
2019-05-30T17:21:58.818Z,0.85
2019-05-30T17:24:58.824Z,0.42
2019-05-30T17:25:58.818Z,0.55
2019-05-30T17:26:58.767Z,0.05
2019-05-30T17:27:59.078Z,0.00
2019-05-30T17:30:58.833Z,1.00
2019-05-30T17:31:58.827Z,0.11
2019-05-30T17:32:58.780Z,0.01
2019-05-30T17:33:58.827Z,0.13
2019-05-30T17:36:58.856Z,0.68
2019-05-30T17:37:58.825Z,1.14
2019-05-30T17:38:58.780Z,0.63
2019-05-30T17:39:58.842Z,0.31
2019-05-30T17:42:58.830Z,0.00
2019-05-30T17:43:58.847Z,0.00
2019-05-30T17:44:58.820Z,0.00
2019-05-30T17:45:58.833Z,0.32
2019-05-30T17:48:58.842Z,0.12
2019-05-30T17:49:58.784Z,0.73
2019-05-30T17:50:58.818Z,0.81
2019-05-30T17:51:58.852Z,0.69
2019-05-30T17:54:58.853Z,0.66
2019-05-30T17:55:59.447Z,0.02
2019-05-30T17:56:58.839Z,0.30
2019-05-30T17:57:58.832Z,0.67
2019-05-30T18:00:58.848Z,0.00
2019-05-30T18:02:00.870Z,0.27
2019-05-30T18:02:58.820Z,0.82
2019-05-30T18:03:58.870Z,0.46
2019-05-30T18:06:58.864Z,0.76
2019-05-30T18:07:58.811Z,0.40
2019-05-30T18:08:58.815Z,0.33
2019-05-30T18:09:58.859Z,0.55
2019-05-30T18:12:58.882Z,0.05
2019-05-30T18:13:58.818Z,0.48
2019-05-30T18:14:58.812Z,0.08
2019-05-30T18:15:58.869Z,0.56
2019-05-30T18:18:58.880Z,0.03
2019-05-30T18:19:58.833Z,0.00
2019-05-30T18:20:58.803Z,0.37
2019-05-30T18:21:58.854Z,0.20
2019-05-30T18:24:58.864Z,0.45
2019-05-30T18:25:58.812Z,0.22
2019-05-30T18:26:58.818Z,0.00
2019-05-30T18:27:58.868Z,0.00
2019-05-30T18:30:58.856Z,0.02
2019-05-30T18:31:58.836Z,0.00
2019-05-30T18:32:58.839Z,0.24
2019-05-30T18:33:58.863Z,0.00
2019-05-30T18:36:58.875Z,0.00
2019-05-30T18:38:01.761Z,0.00
2019-05-30T18:38:58.828Z,0.00
2019-05-30T18:39:58.871Z,0.01
2019-05-30T18:42:58.878Z,0.20
2019-05-30T18:43:58.839Z,0.91
2019-05-30T18:44:58.826Z,0.25
2019-05-30T18:45:58.855Z,0.00
2019-05-30T18:48:58.870Z,0.08
2019-05-30T18:49:58.854Z,0.59
2019-05-30T18:50:58.877Z,0.74
2019-05-30T18:51:58.862Z,0.44
2019-05-30T18:54:58.882Z,0.17
2019-05-30T18:55:58.874Z,0.00
2019-05-30T18:56:58.884Z,0.30
2019-05-30T18:57:58.895Z,0.07
2019-05-30T19:00:58.919Z,0.00
2019-05-30T19:01:58.858Z,0.00
2019-05-30T19:02:58.853Z,0.00
2019-05-30T19:03:58.976Z,0.00
2019-05-30T19:06:58.889Z,0.03
2019-05-30T19:07:58.856Z,0.41
2019-05-30T19:08:58.862Z,0.07
2019-05-30T19:09:58.906Z,0.61
2019-05-30T19:12:58.922Z,0.15
2019-05-30T19:13:58.847Z,0.09
2019-05-30T19:14:58.876Z,0.12
2019-05-30T19:15:58.909Z,0.00
2019-05-30T19:18:58.918Z,0.76
2019-05-30T19:19:58.881Z,0.05
2019-05-30T19:20:58.858Z,0.00
2019-05-30T19:21:58.920Z,0.03
2019-05-30T19:24:58.905Z,0.00
2019-05-30T19:25:58.857Z,0.04
2019-05-30T19:26:58.909Z,0.00
2019-05-30T19:27:58.913Z,0.00
2019-05-30T19:30:58.925Z,0.08
2019-05-30T19:31:58.900Z,0.00
2019-05-30T19:32:58.911Z,0.11